Time;durP1;ratioP1;P1;durP2;ratioP2;P2;SDS_P1;SDS_P2;PMS_P1;PMS_P2;Temp;Humidity;BMP_temperature;BMP_pressure;BME280_temperature;BME280_humidity;BME280_pressure;Samples;Min_cycle;Max_cycle;Signal;HPM_P1;HPM_P2
2024/04/25 00:01:10;;;;;;;42.70;10.20;;;;;;;15.02;100.00;99245.31;5410927;26;20000;-71
2024/04/25 00:03:35;;;;;;;47.10;10.85;;;;;;;15.02;100.00;99244.47;5441281;26;20429;-70
2024/04/25 00:06:01;;;;;;;35.42;9.68;;;;;;;15.03;100.00;99244.47;5450447;26;20014;-69
2024/04/25 00:08:27;;;;;;;48.53;9.02;;;;;;;15.07;100.00;99247.94;5449888;26;20453;-69
2024/04/25 00:10:54;;;;;;;50.60;9.77;;;;;;;15.16;100.00;99244.44;5450009;26;20035;-68
2024/04/25 00:13:26;;;;;;;40.25;9.52;;;;;;;15.22;100.00;99257.44;5449496;26;19999;-72
2024/04/25 00:15:56;;;;;;;43.60;8.52;;;;;;;15.28;100.00;99254.81;5449656;26;20006;-70
2024/04/25 00:18:21;;;;;;;;;;;;;;;15.22;100.00;99262.63;5450872;26;19995;-72
2024/04/25 00:20:47;;;;;;;40.28;8.55;;;;;;;15.16;100.00;99252.25;5450352;26;19939;-71
2024/04/25 00:23:12;;;;;;;40.97;8.63;;;;;;;15.10;100.00;99260.06;5450600;26;20005;-72
2024/04/25 00:25:38;;;;;;;44.25;9.10;;;;;;;14.96;100.00;99232.34;5451204;26;20005;-76
2024/04/25 00:28:04;;;;;;;42.42;8.07;;;;;;;15.10;100.00;99260.06;5449944;26;20038;-70
2024/04/25 00:30:29;;;;;;;40.80;9.52;;;;;;;14.80;100.00;99251.41;5450187;26;19999;-71
2024/04/25 00:32:55;;;;;;;45.50;10.27;;;;;;;14.80;100.00;99246.22;5448836;26;20003;-71
2024/04/25 00:35:20;;;;;;;40.00;8.77;;;;;;;14.83;100.00;99251.41;5449813;26;20902;-73
2024/04/25 00:37:46;;;;;;;39.20;8.88;;;;;;;14.83;100.00;99246.22;5449999;26;19994;-75
2024/04/25 00:40:11;;;;;;;37.15;9.02;;;;;;;14.83;100.00;99236.69;5449917;26;20022;-75
2024/04/25 00:42:37;;;;;;;41.15;8.40;;;;;;;14.86;100.00;99246.22;5449333;26;19999;-73
2024/04/25 00:45:03;;;;;;;52.53;9.18;;;;;;;14.64;100.00;99202.03;5443908;26;20011;-71
2024/04/25 00:47:29;;;;;;;49.72;8.48;;;;;;;14.85;100.00;99215.88;5449750;26;20002;-73
2024/04/25 00:49:57;;;;;;;45.13;8.85;;;;;;;15.00;100.00;99236.69;5449938;26;20039;-72
2024/04/25 00:52:23;;;;;;;43.90;9.40;;;;;;;15.10;100.00;99236.66;5449720;26;20010;-74
2024/04/25 00:54:49;;;;;;;38.30;7.82;;;;;;;15.07;100.00;99240.13;5450556;26;19995;-73
2024/04/25 00:57:15;;;;;;;42.90;8.35;;;;;;;15.01;100.00;99228.00;5449268;26;20113;-74
2024/04/25 00:59:43;;;;;;;41.90;9.73;;;;;;;15.16;100.00;99231.44;5449435;26;20009;-71
2024/04/25 01:02:09;;;;;;;38.00;8.00;;;;;;;15.18;100.00;99212.38;5449780;26;20620;-74
2024/04/25 01:04:36;;;;;;;44.75;9.32;;;;;;;15.14;100.00;99209.78;5448112;26;20371;-72
2024/04/25 01:07:03;;;;;;;45.13;9.52;;;;;;;15.14;100.00;99218.47;5449411;26;20007;-72
2024/04/25 01:09:29;;;;;;;38.28;8.32;;;;;;;15.16;100.00;99221.91;5447141;26;20010;-72
2024/04/25 01:11:56;;;;;;;37.00;7.63;;;;;;;14.94;100.00;99195.09;5449144;26;20445;-72
2024/04/25 01:14:21;;;;;;;43.83;9.73;;;;;;;14.96;100.00;99221.94;5450239;26;19991;-71
2024/04/25 01:16:47;;;;;;;45.88;8.98;;;;;;;14.57;100.00;99189.91;5447706;26;20003;-71
2024/04/25 01:19:14;;;;;;;37.08;9.27;;;;;;;14.52;100.00;99189.88;5449192;26;19995;-73
2024/04/25 01:21:39;;;;;;;46.55;8.73;;;;;;;14.68;100.00;99234.09;5449179;26;20003;-72
2024/04/25 01:24:07;;;;;;;38.65;9.75;;;;;;;14.67;100.00;99245.34;5448661;26;20009;-72
2024/04/25 01:26:33;;;;;;;38.35;8.57;;;;;;;14.51;100.00;99245.28;5449416;26;19999;-70
2024/04/25 01:29:00;;;;;;;38.72;8.05;;;;;;;14.27;100.00;99240.06;5449212;26;20013;-71
2024/04/25 01:31:26;;;;;;;41.17;9.32;;;;;;;14.14;100.00;99221.00;5449289;26;20438;-72
2024/04/25 01:33:53;;;;;;;34.92;8.85;;;;;;;14.36;100.00;99243.53;5449880;26;20037;-70
2024/04/25 01:36:19;;;;;;;42.42;8.35;;;;;;;14.34;100.00;99234.91;5414609;26;20037;-71
2024/04/25 01:38:45;;;;;;;36.90;9.13;;;;;;;14.28;100.00;99253.06;5445696;26;20069;-70
2024/04/25 01:41:10;;;;;;;30.92;8.02;;;;;;;14.26;100.00;99246.13;5448687;26;20011;-71
2024/04/25 01:43:36;;;;;;;37.40;9.07;;;;;;;14.29;100.00;99244.38;5448924;26;20018;-71
2024/04/25 01:46:02;;;;;;;36.22;9.40;;;;;;;14.23;100.00;99216.69;5448923;26;20006;-72
2024/04/25 01:48:27;;;;;;;39.38;8.73;;;;;;;14.33;100.00;99240.94;5447473;26;20337;-69
2024/04/25 01:50:53;;;;;;;31.95;8.88;;;;;;;14.35;100.00;99243.53;5446714;26;20027;-74
2024/04/25 01:53:18;;;;;;;47.78;9.95;;;;;;;14.40;100.00;99237.50;5445731;26;20031;-72
2024/04/25 01:55:44;;;;;;;39.03;8.68;;;;;;;14.45;100.00;99229.69;5446000;26;20831;-70
2024/04/25 01:58:09;;;;;;;33.38;9.35;;;;;;;14.52;100.00;99228.00;5437826;26;20429;-75
2024/04/25 02:00:35;;;;;;;38.13;8.98;;;;;;;14.53;100.00;99206.34;5443988;26;20013;-76
2024/04/25 02:03:00;;;;;;;42.90;9.30;;;;;;;14.59;100.00;99193.34;5445963;26;20013;-70
2024/04/25 02:05:26;;;;;;;36.58;8.40;;;;;;;14.81;100.00;99215.03;5445768;26;20077;-70
2024/04/25 02:07:54;;;;;;;41.70;9.25;;;;;;;14.81;100.00;99230.63;5447324;26;19999;-72
2024/04/25 02:10:20;;;;;;;33.45;8.32;;;;;;;14.74;100.00;99223.69;5449254;26;20501;-72
2024/04/25 02:13:06;;;;;;;36.00;10.18;;;;;;;14.84;100.00;99238.41;5375222;26;20004;-76
2024/04/25 02:15:31;;;;;;;44.97;9.65;;;;;;;14.92;100.00;99230.63;5372323;26;20024;-70
2024/04/25 02:17:57;;;;;;;42.95;9.18;;;;;;;14.87;100.00;99214.16;5372682;26;20038;-71
2024/04/25 02:25:50;;;;;;;31.10;9.40;;;;;;;14.88;100.00;99226.28;5378163;26;20068;-69
2024/04/25 02:28:15;;;;;;;35.53;10.38;;;;;;;14.68;100.00;99211.56;5377458;26;20084;-70
2024/04/25 02:30:41;;;;;;;45.15;10.48;;;;;;;14.61;100.00;99217.59;5377206;26;20032;-70
2024/04/25 02:33:06;;;;;;;40.65;8.65;;;;;;;14.60;100.00;99221.06;5377420;26;20371;-71
2024/04/25 02:35:31;;;;;;;39.20;9.93;;;;;;;14.59;100.00;99224.50;5329326;26;20008;-70
2024/04/25 02:37:57;;;;;;;38.50;9.25;;;;;;;14.47;100.00;99214.13;5377334;26;20530;-72
2024/04/25 02:40:22;;;;;;;40.65;9.75;;;;;;;14.23;100.00;99189.84;5377490;26;20000;-70
2024/04/25 02:42:48;;;;;;;40.00;11.07;;;;;;;14.48;100.00;99229.72;5377360;26;20008;-70
2024/04/25 02:45:13;;;;;;;47.22;9.90;;;;;;;14.42;100.00;99228.81;5374830;26;20458;-72
2024/04/25 02:47:39;;;;;;;33.63;8.68;;;;;;;14.38;100.00;99215.84;5376036;26;20000;-69
2024/04/25 02:50:05;;;;;;;38.95;9.85;;;;;;;14.38;100.00;99210.66;5399092;26;19986;-70
2024/04/25 02:52:30;;;;;;;41.60;11.10;;;;;;;14.05;100.00;99186.38;5419668;26;19998;-70
2024/04/25 02:54:57;;;;;;;45.10;10.48;;;;;;;14.29;100.00;99226.19;5451508;26;20164;-70
2024/04/25 02:57:22;;;;;;;42.45;10.30;;;;;;;14.33;100.00;99230.56;5451570;26;20005;-70
2024/04/25 02:59:48;;;;;;;38.17;10.38;;;;;;;14.26;100.00;99226.22;5451587;26;20031;-69
2024/04/25 03:02:14;;;;;;;35.13;10.13;;;;;;;14.05;100.00;99190.69;5451148;26;20302;-70
2024/04/25 03:04:40;;;;;;;51.60;11.57;;;;;;;14.25;100.00;99232.25;5452132;26;20006;-72
2024/04/25 03:07:05;;;;;;;37.72;11.88;;;;;;;14.29;100.00;99230.53;5451371;26;19999;-73
2024/04/25 03:09:31;;;;;;;50.35;11.57;;;;;;;14.38;100.00;99233.16;5451120;26;20028;-74
2024/04/25 03:11:56;;;;;;;39.53;10.65;;;;;;;14.17;100.00;99202.84;5451132;26;20105;-70
2024/04/25 03:14:22;;;;;;;43.60;10.48;;;;;;;14.34;100.00;99227.09;5449473;26;20451;-70
2024/04/25 03:16:47;;;;;;;44.72;10.77;;;;;;;14.31;100.00;99228.81;5450903;26;19999;-70
2024/04/25 03:19:13;;;;;;;33.88;10.68;;;;;;;14.40;100.00;99241.81;5452204;26;20009;-69
2024/04/25 03:21:39;;;;;;;46.50;10.23;;;;;;;14.46;100.00;99247.00;5451434;26;20460;-70
2024/04/25 03:24:04;;;;;;;44.47;11.13;;;;;;;14.25;100.00;99201.13;5451306;26;20003;-72
2024/04/25 03:26:30;;;;;;;41.45;11.05;;;;;;;14.60;100.00;99256.56;5450745;26;19995;-71
2024/04/25 03:28:55;;;;;;;40.53;10.32;;;;;;;14.56;100.00;99240.09;5451229;26;19999;-69
2024/04/25 03:31:21;;;;;;;45.83;11.35;;;;;;;14.63;100.00;99244.44;5451016;26;20010;-71
2024/04/25 03:33:46;;;;;;;43.28;11.00;;;;;;;14.75;100.00;99245.34;5451174;26;20013;-70
2024/04/25 03:36:12;;;;;;;44.30;11.07;;;;;;;14.57;100.00;99201.13;5449260;26;20005;-73
2024/04/25 03:38:38;;;;;;;40.45;12.25;;;;;;;14.93;100.00;99242.75;5451010;26;20419;-69
2024/04/25 03:41:04;;;;;;;44.75;12.85;;;;;;;14.93;100.00;99247.94;5451053;26;19998;-71
2024/04/25 03:43:29;;;;;;;49.60;13.52;;;;;;;14.98;100.00;99246.22;5451912;26;19991;-70
2024/04/25 03:45:55;;;;;;;47.13;12.45;;;;;;;15.00;100.00;99241.88;5450474;26;20009;-70
2024/04/25 03:48:20;;;;;;;47.00;13.20;;;;;;;15.06;100.00;99243.59;5449891;26;20022;-76
2024/04/25 03:50:46;;;;;;;56.60;13.32;;;;;;;15.09;100.00;99253.13;5450838;26;20002;-74
2024/04/25 03:53:11;;;;;;;41.50;13.40;;;;;;;14.93;100.00;99232.34;5451571;26;20005;-69
2024/04/25 03:55:37;;;;;;;57.05;15.18;;;;;;;15.18;100.00;99260.91;5450593;26;19999;-71
2024/04/25 03:58:02;;;;;;;61.83;16.02;;;;;;;15.22;100.00;99260.03;5451907;26;19995;-69
2024/04/25 04:00:28;;;;;;;63.38;14.65;;;;;;;15.27;100.00;99255.69;5450541;26;20006;-73
2024/04/25 04:02:55;;;;;;;72.57;15.40;;;;;;;15.31;100.00;99256.56;5450602;26;20434;-74
2024/04/25 04:05:20;;;;;;;54.08;13.63;;;;;;;15.14;100.00;99236.66;5450482;26;19999;-75
2024/04/25 04:07:46;;;;;;;61.50;12.13;;;;;;;15.06;100.00;99251.38;5448327;26;20003;-73
2024/04/25 04:10:12;;;;;;;52.65;11.88;;;;;;;14.83;100.00;99254.03;5442509;26;20044;-69
2024/04/25 04:12:37;;;;;;;37.17;9.82;;;;;;;14.63;100.00;99254.84;5450421;26;20023;-70
2024/04/25 04:15:05;;;;;;;42.00;10.77;;;;;;;14.43;100.00;99248.75;5417227;26;19987;-73
2024/04/25 04:17:31;;;;;;;54.70;11.32;;;;;;;14.39;100.00;99259.13;5451254;26;19998;-69
2024/04/25 04:19:57;;;;;;;47.88;11.50;;;;;;;14.30;100.00;99242.66;5450258;26;20490;-75
2024/04/25 04:22:23;;;;;;;46.10;11.07;;;;;;;14.36;100.00;99261.72;5450774;26;21332;-69
2024/04/25 04:24:48;;;;;;;51.47;13.18;;;;;;;14.27;100.00;99245.25;5451391;26;19991;-69
2024/04/25 04:27:17;;;;;;;50.08;11.48;;;;;;;14.43;100.00;99273.00;5455004;26;19995;-69
2024/04/25 04:29:42;;;;;;;51.58;11.95;;;;;;;14.42;100.00;99279.03;5447100;26;20002;-69
2024/04/25 04:32:08;;;;;;;43.92;12.38;;;;;;;14.39;100.00;99284.22;5451121;26;20006;-70
2024/04/25 04:34:33;;;;;;;41.83;11.25;;;;;;;14.25;100.00;99263.41;5448447;26;20010;-69
2024/04/25 04:36:59;;;;;;;50.20;11.70;;;;;;;14.35;100.00;99267.75;5450557;26;19999;-71
2024/04/25 04:39:24;;;;;;;52.17;11.95;;;;;;;14.45;100.00;99260.00;5451308;26;20003;-71
2024/04/25 04:41:51;;;;;;;57.38;13.32;;;;;;;14.47;100.00;99260.88;5450307;26;20535;-71
2024/04/25 04:44:17;;;;;;;46.80;11.77;;;;;;;14.40;100.00;99247.00;5450176;26;20024;-70
2024/04/25 04:46:42;;;;;;;53.97;11.25;;;;;;;14.40;100.00;99234.91;5450930;26;19991;-72
2024/04/25 04:49:07;;;;;;;54.65;10.75;;;;;;;14.63;100.00;99270.41;5448035;26;20075;-70
2024/04/25 04:51:34;;;;;;;57.30;11.02;;;;;;;14.65;100.00;99286.88;5449884;26;20762;-70
2024/04/25 04:54:00;;;;;;;45.53;10.35;;;;;;;14.63;100.00;99286.00;5450920;26;20034;-71
2024/04/25 04:56:26;;;;;;;46.53;11.05;;;;;;;14.50;100.00;99279.06;5446287;26;20454;-70
2024/04/25 04:58:51;;;;;;;46.42;11.20;;;;;;;14.56;100.00;99289.44;5447615;26;20009;-70
2024/04/25 05:01:17;;;;;;;52.35;12.25;;;;;;;14.68;100.00;99291.25;5410652;26;19992;-70
2024/04/25 05:03:43;;;;;;;56.17;11.00;;;;;;;14.79;100.00;99275.66;5381281;26;19999;-74
2024/04/25 05:06:10;;;;;;;42.90;11.10;;;;;;;14.81;100.00;99279.13;5410483;26;19995;-69
2024/04/25 05:08:36;;;;;;;47.28;10.27;;;;;;;14.84;100.00;99271.31;5410408;26;20003;-70
2024/04/25 05:11:01;;;;;;;31.88;8.88;;;;;;;14.82;100.00;99265.28;5410684;26;20010;-71
2024/04/25 05:13:27;;;;;;;47.45;10.98;;;;;;;14.88;100.00;99270.47;5374484;26;20073;-70
2024/04/25 05:15:52;;;;;;;43.63;9.90;;;;;;;14.65;100.00;99241.88;5405839;26;20076;-73
2024/04/25 05:18:17;;;;;;;46.00;10.52;;;;;;;14.84;100.00;99272.19;5410318;26;19999;-76
2024/04/25 05:20:43;;;;;;;38.95;9.95;;;;;;;14.80;100.00;99262.66;5411365;26;20020;-70
2024/04/25 05:23:08;;;;;;;52.67;10.02;;;;;;;14.67;100.00;99238.41;5410232;26;20101;-69
2024/04/25 05:25:34;;;;;;;48.83;11.20;;;;;;;14.96;100.00;99270.47;5410624;26;20029;-70
2024/04/25 05:28:00;;;;;;;49.80;9.95;;;;;;;15.04;100.00;99272.19;5410732;26;19992;-71
2024/04/25 05:30:27;;;;;;;50.05;10.65;;;;;;;15.06;100.00;99271.34;5410572;26;20015;-72
2024/04/25 05:32:53;;;;;;;42.92;10.63;;;;;;;14.82;100.00;99219.34;5431136;26;19995;-72
2024/04/25 05:35:18;;;;;;;47.40;9.52;;;;;;;15.16;100.00;99262.66;5450112;26;19998;-71
2024/04/25 05:37:44;;;;;;;48.13;10.05;;;;;;;15.25;100.00;99251.38;5449827;26;20003;-69
2024/04/25 05:40:10;;;;;;;50.55;10.57;;;;;;;15.25;100.00;99254.81;5449305;26;20009;-71
2024/04/25 05:42:37;;;;;;;36.05;9.02;;;;;;;15.29;100.00;99268.69;5449207;26;20026;-72
2024/04/25 05:45:06;;;;;;;51.85;10.40;;;;;;;15.22;100.00;99260.03;5447895;26;20438;-72
2024/04/25 05:47:32;;;;;;;43.33;9.95;;;;;;;15.19;100.00;99278.25;5441497;26;19995;-72
2024/04/25 05:49:58;;;;;;;44.15;10.38;;;;;;;15.18;100.00;99286.91;5410791;26;20007;-73
2024/04/25 05:52:23;;;;;;;41.05;9.48;;;;;;;15.20;100.00;99280.84;5413553;26;20015;-71
2024/04/25 05:54:49;;;;;;;42.72;9.32;;;;;;;14.97;100.00;99241.88;5414289;26;20006;-70
2024/04/25 05:57:16;;;;;;;48.22;10.18;;;;;;;15.13;100.00;99254.88;5414412;26;20060;-71
2024/04/25 05:59:41;;;;;;;40.40;9.82;;;;;;;15.20;100.00;99277.38;5413976;26;19991;-71
2024/04/25 06:02:07;;;;;;;43.75;9.80;;;;;;;15.27;100.00;99271.28;5414510;26;20064;-73
2024/04/25 06:04:33;;;;;;;47.92;11.15;;;;;;;15.29;100.00;99269.56;5414250;26;19991;-71
2024/04/25 06:06:59;;;;;;;33.10;10.15;;;;;;;15.09;100.00;99243.59;5414033;26;19999;-70
2024/04/25 06:09:24;;;;;;;34.97;9.48;;;;;;;15.24;100.00;99273.91;5384206;26;20007;-71
2024/04/25 06:11:50;;;;;;;49.17;9.65;;;;;;;15.28;100.00;99277.38;5413740;26;20027;-71
2024/04/25 06:14:16;;;;;;;41.60;9.95;;;;;;;15.35;100.00;99277.38;5384349;26;20490;-76
2024/04/25 06:16:41;;;;;;;36.60;10.05;;;;;;;15.52;100.00;99273.84;5414527;26;19995;-71
2024/04/25 06:19:08;;;;;;;38.22;10.10;;;;;;;15.52;100.00;99273.84;5414321;26;19991;-73
2024/04/25 06:21:34;;;;;;;40.05;10.15;;;;;;;15.29;100.00;99235.75;5442560;26;19995;-71
2024/04/25 06:24:04;;;;;;;43.15;10.70;;;;;;;15.61;100.00;99276.41;5453129;26;20494;-71
2024/04/25 06:26:30;;;;;;;44.25;11.20;;;;;;;15.63;100.00;99263.44;5452671;26;20289;-72
2024/04/25 06:28:56;;;;;;;50.80;12.05;;;;;;;15.67;100.00;99268.59;5437343;26;20000;-70
2024/04/25 06:31:23;;;;;;;45.83;11.55;;;;;;;15.66;100.00;99255.59;5434478;26;19998;-70
2024/04/25 06:33:49;;;;;;;36.78;11.45;;;;;;;15.87;100.00;99283.31;5435674;26;20003;-70
2024/04/25 06:36:15;;;;;;;52.08;12.25;;;;;;;15.95;100.00;99278.06;5432315;26;20328;-70
2024/04/25 06:38:40;;;;;;;34.13;11.88;;;;;;;15.76;100.00;99240.81;5434629;26;19998;-73
2024/04/25 06:41:06;;;;;;;43.55;10.88;;;;;;;16.03;100.00;99286.72;5434719;26;20011;-71
2024/04/25 06:43:31;;;;;;;41.75;11.13;;;;;;;16.02;100.00;99279.78;5438802;26;20014;-70
2024/04/25 06:45:57;;;;;;;42.58;11.23;;;;;;;16.01;100.00;99283.25;5432650;26;19995;-72
2024/04/25 06:48:22;;;;;;;41.60;10.93;;;;;;;15.96;100.00;99272.88;5429226;26;19995;-70
2024/04/25 06:50:48;;;;;;;45.35;10.88;;;;;;;16.08;100.00;99279.75;5426543;26;20000;-72
2024/04/25 06:53:13;;;;;;;53.60;11.35;;;;;;;16.14;100.00;99256.28;5435081;26;20070;-70
2024/04/25 06:55:39;;;;;;;35.28;10.60;;;;;;;16.19;100.00;99266.69;5433892;26;19995;-72
2024/04/25 06:58:05;;;;;;;41.60;11.15;;;;;;;15.97;100.00;99230.31;5432327;26;20006;-70
2024/04/25 07:00:31;;;;;;;36.13;10.48;;;;;;;16.12;100.00;99252.81;5433015;26;20003;-73
2024/04/25 07:02:57;;;;;;;40.92;10.70;;;;;;;16.24;100.00;99251.91;5430805;26;20750;-72
2024/04/25 07:05:22;;;;;;;40.40;10.23;;;;;;;16.29;100.00;99254.47;5437061;26;20076;-70
2024/04/25 07:07:49;;;;;;;35.40;10.15;;;;;;;16.43;100.00;99268.25;5431463;26;20430;-71
2024/04/25 07:10:15;;;;;;;45.75;11.80;;;;;;;16.45;100.00;99260.47;5434252;26;19999;-73
2024/04/25 07:12:41;;;;;;;47.50;9.40;;;;;;;16.56;100.00;99249.94;5434332;26;20452;-72
2024/04/25 07:15:07;;;;;;;36.92;10.25;;;;;;;16.80;100.00;99265.41;5430965;26;20110;-73
2024/04/25 07:17:33;;;;;;;43.33;12.05;;;;;;;16.85;100.00;99267.97;5436893;26;19999;-73
2024/04/25 07:19:59;;;;;;;45.50;9.82;;;;;;;16.77;100.00;99235.91;5434891;26;19999;-69
2024/04/25 07:22:26;;;;;;;41.70;9.55;;;;;;;16.81;100.00;99242.84;5436868;26;20780;-70
2024/04/25 07:24:52;;;;;;;35.88;9.90;;;;;;;16.89;100.00;99272.28;5435444;26;19998;-71
2024/04/25 07:27:17;;;;;;;44.53;9.90;;;;;;;16.68;100.00;99234.22;5433898;26;20008;-74
2024/04/25 07:29:44;;;;;;;36.53;11.30;;;;;;;16.79;100.00;99235.00;5434065;26;20010;-72
2024/04/25 07:32:11;;;;;;;45.38;9.75;;;;;;;17.01;100.00;99270.47;5431621;26;20023;-70
2024/04/25 07:34:38;;;;;;;35.50;10.13;;;;;;;16.83;100.00;99274.94;5433938;26;20072;-73
2024/04/25 07:37:03;;;;;;;28.13;8.48;;;;;;;16.47;100.00;99204.00;5430238;26;19995;-71
2024/04/25 07:39:30;;;;;;;38.55;10.93;;;;;;;16.74;100.00;99249.81;5415800;26;20001;-72
2024/04/25 07:41:56;;;;;;;51.20;10.50;;;;;;;16.80;100.00;99247.16;5415545;26;20065;-75
2024/04/25 07:44:21;;;;;;;36.90;10.10;;;;;;;16.95;100.00;99248.81;5415664;26;20003;-71
2024/04/25 07:46:46;;;;;;;39.70;10.55;;;;;;;17.39;100.00;99284.91;5415452;26;20002;-71
2024/04/25 07:49:15;;;;;;;47.67;10.55;;;;;;;17.51;100.00;99284.78;5415960;26;19996;-71
2024/04/25 07:51:42;;;;;;;34.97;11.20;;;;;;;17.63;100.00;99295.09;5420000;26;20064;-71
2024/04/25 07:54:08;;;;;;;38.90;10.88;;;;;;;17.78;100.00;99293.19;5433075;26;20026;-74
2024/04/25 07:56:34;;;;;;;39.38;9.73;;;;;;;17.56;100.00;99290.81;5452312;26;20360;-72
2024/04/25 07:59:00;;;;;;;38.60;11.75;;;;;;;17.70;100.00;99295.03;5482736;26;20010;-73
2024/04/25 08:01:25;;;;;;;35.17;9.32;;;;;;;17.77;100.00;99291.47;5462709;26;20059;-71
2024/04/25 08:03:51;;;;;;;35.28;9.63;;;;;;;17.54;100.00;99297.78;5450604;26;20066;-72
2024/04/25 08:06:17;;;;;;;35.30;10.45;;;;;;;17.61;100.00;99283.81;5447604;26;19999;-73
2024/04/25 08:08:43;;;;;;;43.25;11.13;;;;;;;17.64;100.00;99251.59;5451096;26;20006;-71
2024/04/25 08:11:10;;;;;;;35.58;10.27;;;;;;;17.98;100.00;99300.84;5450385;26;19994;-75
2024/04/25 08:13:36;;;;;;;48.28;10.68;;;;;;;18.05;100.00;99294.63;5449979;26;20322;-72
2024/04/25 08:16:01;;;;;;;45.90;10.82;;;;;;;18.18;100.00;99290.13;5451198;26;20009;-72
2024/04/25 08:18:27;;;;;;;47.75;10.25;;;;;;;18.40;100.00;99287.22;5429193;26;20076;-71
2024/04/25 08:20:53;;;;;;;42.45;8.95;;;;;;;18.30;100.00;99283.03;5443383;26;20340;-73
2024/04/25 08:23:19;;;;;;;37.55;10.10;;;;;;;18.25;100.00;99256.94;5449586;26;20002;-73
2024/04/25 08:25:44;;;;;;;42.50;9.90;;;;;;;18.36;100.00;99289.00;5462295;26;20071;-73
2024/04/25 08:28:10;;;;;;;43.00;10.43;;;;;;;18.54;100.00;99292.25;5400360;26;19996;-74
2024/04/25 08:30:36;;;;;;;36.05;9.48;;;;;;;18.76;100.00;99283.19;5443410;26;19995;-71
2024/04/25 08:33:01;;;;;;;45.53;10.52;;;;;;;18.97;100.00;99280.31;5417656;26;20003;-70
2024/04/25 08:35:27;;;;;;;39.92;10.05;;;;;;;19.02;100.00;99273.25;5446147;26;20353;-71
2024/04/25 08:37:52;;;;;;;40.35;9.40;;;;;;;19.07;100.00;99281.88;5433282;26;20095;-73
2024/04/25 08:40:18;;;;;;;43.35;9.63;;;;;;;19.07;100.00;99263.56;5442496;26;19999;-70
2024/04/25 08:42:49;;;;;;;43.78;9.65;;;;;;;19.21;100.00;99276.38;5448539;26;19999;-70
2024/04/25 08:45:15;;;;;;;31.08;9.57;;;;;;;19.47;100.00;99264.59;5417719;26;19995;-74
2024/04/25 08:47:41;;;;;;;45.58;10.07;;;;;;;19.56;100.00;99259.16;5450098;26;20045;-74
2024/04/25 08:50:09;;;;;;;46.00;9.38;;;;;;;19.67;100.00;99257.19;5450240;26;19998;-71
2024/04/25 08:52:37;;;;;;;35.03;10.15;;;;;;;19.90;100.00;99266.41;5416393;26;20012;-70
2024/04/25 08:55:04;;;;;;;48.90;9.65;;;;;;;20.01;100.00;99266.16;5446020;26;20010;-73
2024/04/25 08:57:29;;;;;;;44.00;9.15;;;;;;;20.04;100.00;99266.09;5443068;26;19994;-72
2024/04/25 08:59:56;;;;;;;48.05;9.45;;;;;;;20.18;100.00;99264.03;5441390;26;19995;-70
2024/04/25 09:02:27;;;;;;;35.75;9.93;;;;;;;20.24;100.00;99267.41;5442620;26;19998;-70
2024/04/25 09:04:54;;;;;;;31.08;8.27;;;;;;;20.27;100.00;99259.50;5439958;26;20002;-70
2024/04/25 09:07:22;;;;;;;42.47;9.77;;;;;;;20.38;100.00;99257.50;5446970;26;19995;-72
2024/04/25 09:09:47;;;;;;;44.47;10.20;;;;;;;20.48;100.00;99258.16;5438193;26;20013;-71
2024/04/25 09:12:13;;;;;;;46.55;9.75;;;;;;;20.66;100.00;99264.69;5440712;26;19995;-77
2024/04/25 09:14:38;;;;;;;30.30;8.90;;;;;;;20.68;100.00;99261.13;5445290;26;19999;-75
2024/04/25 09:17:04;;;;;;;29.48;8.48;;;;;;;20.62;100.00;99249.94;5449576;26;20015;-71
2024/04/25 09:19:30;;;;;;;30.50;9.07;;;;;;;20.72;100.00;99261.13;5440995;26;20100;-71
2024/04/25 09:21:56;;;;;;;33.50;9.75;;;;;;;20.81;100.00;99267.00;5443832;26;20509;-70
2024/04/25 09:24:22;;;;;;;38.67;9.02;;;;;;;20.75;100.00;99226.94;5462182;26;19998;-71
2024/04/25 09:26:47;;;;;;;43.42;8.50;;;;;;;20.94;100.00;99253.59;5455031;26;20036;-69
2024/04/25 09:29:14;;;;;;;35.95;8.77;;;;;;;20.90;100.00;99229.19;5419889;26;20090;-69
2024/04/25 09:31:41;;;;;;;34.75;9.52;;;;;;;21.09;100.00;99258.44;5472991;26;19994;-71
2024/04/25 09:34:08;;;;;;;32.03;7.88;;;;;;;21.00;100.00;99238.53;5484292;26;19998;-72
2024/04/25 09:36:33;;;;;;;35.67;8.10;;;;;;;21.19;100.00;99237.22;5482869;26;20022;-71
2024/04/25 09:38:59;;;;;;;29.52;6.97;;;;;;;21.04;100.00;99252.44;5485206;26;20440;-73
2024/04/25 09:41:27;;;;;;;26.20;7.93;;;;;;;21.29;100.00;99243.94;5483386;26;19998;-70
2024/04/25 09:43:53;;;;;;;31.95;8.23;;;;;;;21.22;100.00;99238.00;5463148;26;20015;-73
2024/04/25 09:46:27;;;;;;;36.90;8.27;;;;;;;21.36;100.00;99248.13;5470717;26;20014;-72
2024/04/25 09:48:56;;;;;;;34.25;7.63;;;;;;;21.54;100.00;99219.63;5469604;26;20078;-71
2024/04/25 09:51:38;;;;;;;27.33;7.38;;;;;;;21.78;100.00;99218.97;5480588;26;20087;-70
2024/04/25 09:54:14;;;;;;;39.10;8.30;;;;;;;21.85;100.00;99222.25;5478366;26;20013;-72
2024/04/25 09:56:42;;;;;;;31.83;8.20;;;;;;;22.10;100.00;99216.25;5484362;26;20074;-70
2024/04/25 09:59:26;;;;;;;30.25;7.65;;;;;;;22.21;100.00;99184.41;5477701;26;19998;-71
2024/04/25 10:01:52;;;;;;;26.17;7.15;;;;;;;22.58;100.00;99217.41;5482341;26;19998;-70
2024/04/25 10:04:19;;;;;;;35.25;8.38;;;;;;;22.77;100.00;99212.41;5488690;26;20340;-72
2024/04/25 10:06:45;;;;;;;27.95;7.20;;;;;;;22.88;100.00;99205.03;5478406;26;20421;-73
2024/04/25 10:09:11;;;;;;;32.75;7.43;;;;;;;22.99;100.00;99190.63;5479771;26;20010;-74
2024/04/25 10:11:39;;;;;;;35.47;7.13;;;;;;;23.34;100.00;99199.06;5471356;26;19999;-70
2024/04/25 10:14:04;;;;;;;28.77;7.07;;;;;;;23.49;100.00;99193.25;5478838;26;20451;-70
2024/04/25 10:16:30;;;;;;;31.83;7.38;;;;;;;23.44;100.00;99163.59;5464990;26;20014;-72
2024/04/25 10:18:55;;;;;;;35.40;6.68;;;;;;;23.59;100.00;99170.06;5451585;26;20018;-70
2024/04/25 10:21:21;;;;;;;23.92;5.72;;;;;;;23.67;100.00;99168.00;5448113;26;20014;-69
2024/04/25 10:23:52;;;;;;;25.23;6.25;;;;;;;23.66;100.00;99136.44;5448469;26;20006;-72
2024/04/25 10:26:19;;;;;;;28.83;5.95;;;;;;;23.85;100.00;99140.09;5438625;26;19995;-70
2024/04/25 10:29:03;;;;;;;23.90;4.70;;;;;;;23.74;95.32;99115.94;5448668;26;20071;-75
2024/04/25 10:31:35;;;;;;;29.55;6.45;;;;;;;23.83;95.59;99144.56;5436123;26;20010;-72
2024/04/25 10:34:01;;;;;;;26.58;5.82;;;;;;;23.93;92.43;99131.91;5435844;26;20014;-72
2024/04/25 10:36:27;;;;;;;30.98;5.85;;;;;;;23.86;95.94;99104.91;5431725;26;20003;-71
2024/04/25 10:38:55;;;;;;;23.60;5.63;;;;;;;24.05;91.78;99122.63;5434977;26;19998;-71
2024/04/25 10:41:31;;;;;;;28.08;5.60;;;;;;;23.96;90.49;99112.47;5434132;26;20008;-73
2024/04/25 10:43:57;;;;;;;28.30;5.95;;;;;;;24.17;91.79;99098.41;5434832;26;20004;-72
2024/04/25 10:46:22;;;;;;;22.27;5.15;;;;;;;23.86;91.77;99085.59;5429428;26;20302;-75
2024/04/25 10:48:48;;;;;;;25.25;4.82;;;;;;;24.02;88.34;99114.84;5435176;26;20005;-70
2024/04/25 10:51:14;;;;;;;19.42;4.47;;;;;;;23.88;81.20;99087.25;5451606;26;19998;-73
2024/04/25 10:53:41;;;;;;;24.92;4.40;;;;;;;24.01;77.27;99087.66;5452738;26;20075;-70
2024/04/25 10:56:06;;;;;;;28.58;4.93;;;;;;;24.08;75.60;99088.25;5452754;26;19995;-74
2024/04/25 10:58:32;;;;;;;21.90;3.75;;;;;;;24.15;79.17;99081.81;5449482;26;20071;-71
2024/04/25 11:00:58;;;;;;;20.88;4.05;;;;;;;24.17;75.11;99081.75;5452860;26;20390;-72
2024/04/25 11:03:23;;;;;;;18.70;3.83;;;;;;;24.43;76.37;99080.63;5452624;26;19995;-73
2024/04/25 11:05:50;;;;;;;17.63;4.05;;;;;;;24.20;79.15;99052.59;5452877;26;20059;-71
2024/04/25 11:08:16;;;;;;;22.35;4.53;;;;;;;24.46;75.91;99087.56;5436495;26;20066;-71
2024/04/25 11:10:42;;;;;;;26.10;4.90;;;;;;;24.20;73.64;99064.00;5440353;26;20007;-74
2024/04/25 11:13:07;;;;;;;19.15;4.18;;;;;;;24.35;70.43;99075.69;5434076;26;20392;-74
2024/04/25 11:15:33;;;;;;;22.33;4.78;;;;;;;24.09;70.35;99095.25;5439733;26;20761;-74